sensor_id;sensor_type;location;lat;lon;timestamp;pressure;altitude;pressure_sealevel;temperature;humidity
76637;BME280;65532;52.124;5.480;2023-05-20T00:00:41;102489.72;;;10.32;83.13
76637;BME280;65532;52.124;5.480;2023-05-20T00:03:07;102497.38;;;10.29;82.59
76637;BME280;65532;52.124;5.480;2023-05-20T00:05:34;102490.09;;;10.29;83.25
76637;BME280;65532;52.124;5.480;2023-05-20T00:08:00;102491.03;;;10.22;83.02
76637;BME280;65532;52.124;5.480;2023-05-20T00:10:29;102492.91;;;10.21;82.73
76637;BME280;65532;52.124;5.480;2023-05-20T00:12:56;102486.34;;;10.15;83.54
76637;BME280;65532;52.124;5.480;2023-05-20T00:15:22;102487.94;;;10.10;83.62
76637;BME280;65532;52.124;5.480;2023-05-20T00:17:49;102488.66;;;10.04;84.14
76637;BME280;65532;52.124;5.480;2023-05-20T00:20:16;102494.09;;;10.04;84.37
76637;BME280;65532;52.124;5.480;2023-05-20T00:22:42;102490.72;;;10.02;85.15
76637;BME280;65532;52.124;5.480;2023-05-20T00:25:08;102490.47;;;9.97;84.76
76637;BME280;65532;52.124;5.480;2023-05-20T00:27:35;102496.91;;;9.96;85.11
76637;BME280;65532;52.124;5.480;2023-05-20T00:30:02;102492.66;;;9.93;85.53
76637;BME280;65532;52.124;5.480;2023-05-20T00:32:28;102494.06;;;9.89;85.81
76637;BME280;65532;52.124;5.480;2023-05-20T00:34:56;102494.25;;;9.87;85.61
76637;BME280;65532;52.124;5.480;2023-05-20T00:37:24;102484.84;;;9.83;85.82
76637;BME280;65532;52.124;5.480;2023-05-20T00:39:51;102487.94;;;9.80;85.70
76637;BME280;65532;52.124;5.480;2023-05-20T00:42:21;102492.50;;;9.80;85.73
76637;BME280;65532;52.124;5.480;2023-05-20T00:44:48;102492.31;;;9.81;85.77
76637;BME280;65532;52.124;5.480;2023-05-20T00:47:19;102486.25;;;9.79;86.58
76637;BME280;65532;52.124;5.480;2023-05-20T00:49:49;102484.56;;;9.78;86.76
76637;BME280;65532;52.124;5.480;2023-05-20T00:52:17;102481.19;;;9.76;86.35
76637;BME280;65532;52.124;5.480;2023-05-20T00:54:44;102478.69;;;9.75;86.95
76637;BME280;65532;52.124;5.480;2023-05-20T00:57:12;102475.97;;;9.75;86.81
76637;BME280;65532;52.124;5.480;2023-05-20T00:59:39;102476.16;;;9.73;87.27
76637;BME280;65532;52.124;5.480;2023-05-20T01:02:08;102465.34;;;9.73;86.96
76637;BME280;65532;52.124;5.480;2023-05-20T01:04:35;102467.00;;;9.74;86.62
76637;BME280;65532;52.124;5.480;2023-05-20T01:07:04;102467.84;;;9.75;87.07
76637;BME280;65532;52.124;5.480;2023-05-20T01:09:32;102462.63;;;9.73;87.25
76637;BME280;65532;52.124;5.480;2023-05-20T01:12:05;102465.72;;;9.70;87.60
76637;BME280;65532;52.124;5.480;2023-05-20T01:14:45;102460.22;;;9.64;87.83
76637;BME280;65532;52.124;5.480;2023-05-20T01:17:15;102464.41;;;9.66;87.63
76637;BME280;65532;52.124;5.480;2023-05-20T01:19:46;102463.75;;;9.64;87.81
76637;BME280;65532;52.124;5.480;2023-05-20T01:22:14;102463.09;;;9.62;88.26
76637;BME280;65532;52.124;5.480;2023-05-20T01:24:43;102462.25;;;9.61;88.22
76637;BME280;65532;52.124;5.480;2023-05-20T01:27:11;102449.75;;;9.60;88.17
76637;BME280;65532;52.124;5.480;2023-05-20T01:29:41;102450.69;;;9.53;88.66
76637;BME280;65532;52.124;5.480;2023-05-20T01:32:25;102442.75;;;9.51;88.88
76637;BME280;65532;52.124;5.480;2023-05-20T01:34:52;102446.31;;;9.52;88.89
76637;BME280;65532;52.124;5.480;2023-05-20T01:37:20;102442.94;;;9.50;88.99
76637;BME280;65532;52.124;5.480;2023-05-20T01:39:49;102444.16;;;9.47;89.09
76637;BME280;65532;52.124;5.480;2023-05-20T01:42:17;102450.41;;;9.48;89.06
76637;BME280;65532;52.124;5.480;2023-05-20T01:44:45;102447.88;;;9.46;89.20
76637;BME280;65532;52.124;5.480;2023-05-20T01:47:12;102439.59;;;9.48;89.27
76637;BME280;65532;52.124;5.480;2023-05-20T01:49:40;102435.56;;;9.44;89.40
76637;BME280;65532;52.124;5.480;2023-05-20T01:52:06;102437.78;;;9.40;89.23
76637;BME280;65532;52.124;5.480;2023-05-20T01:54:34;102435.47;;;9.37;89.36
76637;BME280;65532;52.124;5.480;2023-05-20T01:57:00;102433.97;;;9.35;89.72
76637;BME280;65532;52.124;5.480;2023-05-20T01:59:28;102439.25;;;9.28;89.65
76637;BME280;65532;52.124;5.480;2023-05-20T02:01:54;102440.47;;;9.25;90.17
76637;BME280;65532;52.124;5.480;2023-05-20T02:04:21;102437.94;;;9.24;89.90
76637;BME280;65532;52.124;5.480;2023-05-20T02:06:48;102441.69;;;9.23;89.68
76637;BME280;65532;52.124;5.480;2023-05-20T02:09:14;102432.06;;;9.20;90.04
76637;BME280;65532;52.124;5.480;2023-05-20T02:11:41;102432.44;;;9.17;90.39
76637;BME280;65532;52.124;5.480;2023-05-20T02:14:07;102434.84;;;9.12;90.54
76637;BME280;65532;52.124;5.480;2023-05-20T02:16:34;102437.25;;;9.07;90.59
76637;BME280;65532;52.124;5.480;2023-05-20T02:19:00;102432.59;;;9.01;90.65
76637;BME280;65532;52.124;5.480;2023-05-20T02:21:27;102436.31;;;9.00;90.92
76637;BME280;65532;52.124;5.480;2023-05-20T02:23:54;102434.44;;;9.00;91.42
76637;BME280;65532;52.124;5.480;2023-05-20T02:26:20;102436.47;;;8.98;91.08
76637;BME280;65532;52.124;5.480;2023-05-20T02:28:48;102432.47;;;8.94;90.77
76637;BME280;65532;52.124;5.480;2023-05-20T02:31:16;102432.81;;;8.91;91.26
76637;BME280;65532;52.124;5.480;2023-05-20T02:33:43;102435.06;;;8.88;90.98
76637;BME280;65532;52.124;5.480;2023-05-20T02:36:11;102431.03;;;8.84;91.22
76637;BME280;65532;52.124;5.480;2023-05-20T02:38:37;102433.06;;;8.82;91.06
76637;BME280;65532;52.124;5.480;2023-05-20T02:41:04;102424.00;;;8.75;91.53
76637;BME280;65532;52.124;5.480;2023-05-20T02:43:31;102435.53;;;8.68;91.19
76637;BME280;65532;52.124;5.480;2023-05-20T02:45:59;102422.38;;;8.65;91.18
76637;BME280;65532;52.124;5.480;2023-05-20T02:48:26;102418.66;;;8.66;91.10
76637;BME280;65532;52.124;5.480;2023-05-20T02:50:53;102422.75;;;8.62;91.79
76637;BME280;65532;52.124;5.480;2023-05-20T02:53:19;102409.78;;;8.58;91.68
76637;BME280;65532;52.124;5.480;2023-05-20T02:55:46;102409.31;;;8.54;91.53
76637;BME280;65532;52.124;5.480;2023-05-20T02:58:14;102408.47;;;8.54;91.57
76637;BME280;65532;52.124;5.480;2023-05-20T03:00:40;102409.66;;;8.51;91.60
76637;BME280;65532;52.124;5.480;2023-05-20T03:03:07;102410.84;;;8.49;91.79
76637;BME280;65532;52.124;5.480;2023-05-20T03:05:36;102409.34;;;8.46;91.60
76637;BME280;65532;52.124;5.480;2023-05-20T03:08:12;102412.22;;;8.45;91.74
76637;BME280;65532;52.124;5.480;2023-05-20T03:10:39;102417.81;;;8.43;91.76
76637;BME280;65532;52.124;5.480;2023-05-20T03:13:06;102415.09;;;8.43;91.52
76637;BME280;65532;52.124;5.480;2023-05-20T03:15:41;102420.03;;;8.39;91.83
76637;BME280;65532;52.124;5.480;2023-05-20T03:18:07;102419.69;;;8.34;91.73
76637;BME280;65532;52.124;5.480;2023-05-20T03:20:35;102422.25;;;8.28;92.08
76637;BME280;65532;52.124;5.480;2023-05-20T03:23:05;102423.63;;;8.24;91.62
76637;BME280;65532;52.124;5.480;2023-05-20T03:25:35;102426.31;;;8.24;91.77
76637;BME280;65532;52.124;5.480;2023-05-20T03:28:01;102419.56;;;8.20;92.04
76637;BME280;65532;52.124;5.480;2023-05-20T03:30:28;102423.66;;;8.16;91.53
76637;BME280;65532;52.124;5.480;2023-05-20T03:32:56;102430.06;;;8.15;91.26
76637;BME280;65532;52.124;5.480;2023-05-20T03:35:25;102428.19;;;8.15;90.94
76637;BME280;65532;52.124;5.480;2023-05-20T03:37:53;102435.94;;;8.18;90.90
76637;BME280;65532;52.124;5.480;2023-05-20T03:40:21;102425.16;;;8.18;90.46
76637;BME280;65532;52.124;5.480;2023-05-20T03:42:48;102423.13;;;8.20;90.44
76637;BME280;65532;52.124;5.480;2023-05-20T03:45:18;102419.25;;;8.23;90.48
76637;BME280;65532;52.124;5.480;2023-05-20T03:48:01;102414.50;;;8.25;90.16
76637;BME280;65532;52.124;5.480;2023-05-20T03:50:31;102425.97;;;8.27;90.36
76637;BME280;65532;52.124;5.480;2023-05-20T03:52:59;102415.84;;;8.29;90.71
76637;BME280;65532;52.124;5.480;2023-05-20T03:55:26;102419.69;;;8.34;90.37
76637;BME280;65532;52.124;5.480;2023-05-20T03:57:53;102422.22;;;8.36;90.16
76637;BME280;65532;52.124;5.480;2023-05-20T04:00:20;102422.19;;;8.44;89.61
76637;BME280;65532;52.124;5.480;2023-05-20T04:02:47;102418.28;;;8.47;90.67
76637;BME280;65532;52.124;5.480;2023-05-20T04:05:17;102422.16;;;8.52;90.00
76637;BME280;65532;52.124;5.480;2023-05-20T04:07:44;102414.72;;;8.54;89.76
76637;BME280;65532;52.124;5.480;2023-05-20T04:10:12;102416.50;;;8.62;90.73
76637;BME280;65532;52.124;5.480;2023-05-20T04:12:38;102422.69;;;8.70;90.67
76637;BME280;65532;52.124;5.480;2023-05-20T04:15:06;102416.38;;;8.78;90.65
76637;BME280;65532;52.124;5.480;2023-05-20T04:17:44;102412.78;;;8.86;90.21
76637;BME280;65532;52.124;5.480;2023-05-20T04:20:13;102421.19;;;8.91;90.52
76637;BME280;65532;52.124;5.480;2023-05-20T04:22:40;102416.06;;;8.96;91.28
76637;BME280;65532;52.124;5.480;2023-05-20T04:25:07;102421.09;;;8.99;90.67
76637;BME280;65532;52.124;5.480;2023-05-20T04:27:35;102423.81;;;8.99;90.80
76637;BME280;65532;52.124;5.480;2023-05-20T04:30:05;102416.38;;;9.01;90.78
76637;BME280;65532;52.124;5.480;2023-05-20T04:32:36;102418.72;;;9.04;90.49
76637;BME280;65532;52.124;5.480;2023-05-20T04:35:04;102422.91;;;9.07;91.05
76637;BME280;65532;52.124;5.480;2023-05-20T04:37:38;102426.72;;;9.12;91.27
76637;BME280;65532;52.124;5.480;2023-05-20T04:40:06;102421.81;;;9.16;90.81
76637;BME280;65532;52.124;5.480;2023-05-20T04:42:34;102428.34;;;9.21;91.37
76637;BME280;65532;52.124;5.480;2023-05-20T04:45:00;102428.81;;;9.25;91.32
76637;BME280;65532;52.124;5.480;2023-05-20T04:47:30;102438.22;;;9.29;91.28
76637;BME280;65532;52.124;5.480;2023-05-20T04:49:57;102426.41;;;9.30;90.83
76637;BME280;65532;52.124;5.480;2023-05-20T04:52:23;102436.50;;;9.36;91.55
76637;BME280;65532;52.124;5.480;2023-05-20T04:54:50;102432.38;;;9.40;91.50
76637;BME280;65532;52.124;5.480;2023-05-20T04:57:17;102434.53;;;9.45;91.30
76637;BME280;65532;52.124;5.480;2023-05-20T04:59:47;102425.06;;;9.49;91.49
76637;BME280;65532;52.124;5.480;2023-05-20T05:02:14;102427.00;;;9.55;91.36
76637;BME280;65532;52.124;5.480;2023-05-20T05:04:41;102423.53;;;9.61;91.40
76637;BME280;65532;52.124;5.480;2023-05-20T05:07:07;102423.94;;;9.73;91.30
76637;BME280;65532;52.124;5.480;2023-05-20T05:09:34;102424.78;;;9.73;91.58
76637;BME280;65532;52.124;5.480;2023-05-20T05:12:00;102426.00;;;9.85;91.56
76637;BME280;65532;52.124;5.480;2023-05-20T05:14:27;102421.22;;;10.02;91.24
76637;BME280;65532;52.124;5.480;2023-05-20T05:16:54;102413.88;;;10.47;91.28
76637;BME280;65532;52.124;5.480;2023-05-20T05:19:21;102413.06;;;12.14;90.52
76637;BME280;65532;52.124;5.480;2023-05-20T05:21:48;102411.47;;;14.05;85.87
76637;BME280;65532;52.124;5.480;2023-05-20T05:24:14;102411.22;;;15.64;77.76
76637;BME280;65532;52.124;5.480;2023-05-20T05:26:41;102404.78;;;16.73;71.37
76637;BME280;65532;52.124;5.480;2023-05-20T05:29:08;102405.09;;;17.30;67.48
76637;BME280;65532;52.124;5.480;2023-05-20T05:31:37;102401.41;;;17.48;64.87
76637;BME280;65532;52.124;5.480;2023-05-20T05:34:03;102400.81;;;17.34;64.76
76637;BME280;65532;52.124;5.480;2023-05-20T05:36:32;102406.66;;;17.61;62.56
76637;BME280;65532;52.124;5.480;2023-05-20T05:38:59;102404.91;;;18.07;61.33
76637;BME280;65532;52.124;5.480;2023-05-20T05:41:25;102406.13;;;18.68;59.77
76637;BME280;65532;52.124;5.480;2023-05-20T05:43:52;102398.25;;;19.22;56.45
76637;BME280;65532;52.124;5.480;2023-05-20T05:46:19;102402.16;;;19.43;56.21
76637;BME280;65532;52.124;5.480;2023-05-20T05:48:46;102402.69;;;20.00;53.61
76637;BME280;65532;52.124;5.480;2023-05-20T05:51:16;102400.56;;;19.64;54.81
76637;BME280;65532;52.124;5.480;2023-05-20T05:53:43;102404.53;;;19.73;53.24
76637;BME280;65532;52.124;5.480;2023-05-20T05:56:09;102398.34;;;20.04;52.50
76637;BME280;65532;52.124;5.480;2023-05-20T05:58:37;102407.50;;;19.88;52.42
76637;BME280;65532;52.124;5.480;2023-05-20T06:01:05;102404.75;;;19.88;52.69
76637;BME280;65532;52.124;5.480;2023-05-20T06:03:32;102401.91;;;19.83;52.16
76637;BME280;65532;52.124;5.480;2023-05-20T06:05:59;102401.47;;;19.91;52.16
76637;BME280;65532;52.124;5.480;2023-05-20T06:08:25;102405.75;;;20.26;51.51
76637;BME280;65532;52.124;5.480;2023-05-20T06:10:52;102399.66;;;20.73;50.69
76637;BME280;65532;52.124;5.480;2023-05-20T06:13:19;102404.53;;;20.66;49.59
76637;BME280;65532;52.124;5.480;2023-05-20T06:15:48;102408.94;;;20.18;50.39
76637;BME280;65532;52.124;5.480;2023-05-20T06:18:15;102407.97;;;20.51;50.56
76637;BME280;65532;52.124;5.480;2023-05-20T06:20:42;102394.16;;;20.73;48.77
76637;BME280;65532;52.124;5.480;2023-05-20T06:23:09;102392.38;;;20.61;48.78
76637;BME280;65532;52.124;5.480;2023-05-20T06:25:57;102401.75;;;20.60;49.53
76637;BME280;65532;52.124;5.480;2023-05-20T06:28:25;102399.31;;;20.96;48.71
76637;BME280;65532;52.124;5.480;2023-05-20T06:30:55;102388.38;;;21.06;48.54
76637;BME280;65532;52.124;5.480;2023-05-20T06:33:25;102389.81;;;21.51;47.79
76637;BME280;65532;52.124;5.480;2023-05-20T06:35:54;102389.25;;;22.01;46.03
76637;BME280;65532;52.124;5.480;2023-05-20T06:38:21;102391.41;;;21.89;45.98
76637;BME280;65532;52.124;5.480;2023-05-20T06:40:49;102383.44;;;21.45;46.83
76637;BME280;65532;52.124;5.480;2023-05-20T06:43:16;102387.78;;;21.83;46.35
76637;BME280;65532;52.124;5.480;2023-05-20T06:46:03;102383.53;;;21.61;45.94
76637;BME280;65532;52.124;5.480;2023-05-20T06:48:50;102390.00;;;21.87;45.50
76637;BME280;65532;52.124;5.480;2023-05-20T06:51:16;102384.19;;;21.78;45.10
76637;BME280;65532;52.124;5.480;2023-05-20T06:53:45;102372.69;;;21.44;46.39
76637;BME280;65532;52.124;5.480;2023-05-20T06:56:13;102388.28;;;21.70;44.62
76637;BME280;65532;52.124;5.480;2023-05-20T06:58:39;102384.00;;;21.10;45.84
76637;BME280;65532;52.124;5.480;2023-05-20T07:01:06;102375.16;;;21.03;46.61
76637;BME280;65532;52.124;5.480;2023-05-20T07:03:33;102380.84;;;21.29;46.97
76637;BME280;65532;52.124;5.480;2023-05-20T07:06:00;102369.50;;;21.62;44.96
76637;BME280;65532;52.124;5.480;2023-05-20T07:08:27;102378.97;;;21.34;45.72
76637;BME280;65532;52.124;5.480;2023-05-20T07:10:56;102370.81;;;20.80;47.33
76637;BME280;65532;52.124;5.480;2023-05-20T07:13:23;102380.44;;;19.80;49.13
76637;BME280;65532;52.124;5.480;2023-05-20T07:15:51;102373.41;;;19.51;50.00
76637;BME280;65532;52.124;5.480;2023-05-20T07:18:18;102377.56;;;19.53;49.45
76637;BME280;65532;52.124;5.480;2023-05-20T07:20:50;102370.84;;;19.44;49.46
76637;BME280;65532;52.124;5.480;2023-05-20T07:23:35;102365.88;;;19.24;49.57
76637;BME280;65532;52.124;5.480;2023-05-20T07:26:02;102363.41;;;18.72;51.31
76637;BME280;65532;52.124;5.480;2023-05-20T07:28:29;102369.22;;;18.93;51.47
76637;BME280;65532;52.124;5.480;2023-05-20T07:30:56;102358.69;;;18.56;50.90
76637;BME280;65532;52.124;5.480;2023-05-20T07:33:26;102355.88;;;18.51;52.04
76637;BME280;65532;52.124;5.480;2023-05-20T07:35:52;102356.66;;;18.63;51.61
76637;BME280;65532;52.124;5.480;2023-05-20T07:38:20;102355.44;;;18.59;52.59
76637;BME280;65532;52.124;5.480;2023-05-20T07:40:54;102355.09;;;18.67;52.13
76637;BME280;65532;52.124;5.480;2023-05-20T07:43:20;102358.75;;;18.90;51.37
76637;BME280;65532;52.124;5.480;2023-05-20T07:45:47;102350.84;;;18.76;52.37
76637;BME280;65532;52.124;5.480;2023-05-20T07:48:14;102357.06;;;19.05;51.47
76637;BME280;65532;52.124;5.480;2023-05-20T07:50:40;102350.22;;;19.25;51.27
76637;BME280;65532;52.124;5.480;2023-05-20T07:53:07;102353.41;;;19.17;51.15
76637;BME280;65532;52.124;5.480;2023-05-20T07:55:34;102342.44;;;19.00;50.97
76637;BME280;65532;52.124;5.480;2023-05-20T07:58:04;102325.47;;;18.86;51.45
76637;BME280;65532;52.124;5.480;2023-05-20T08:00:33;102334.63;;;18.92;50.90
76637;BME280;65532;52.124;5.480;2023-05-20T08:03:02;102326.47;;;18.97;49.87
76637;BME280;65532;52.124;5.480;2023-05-20T08:05:40;102333.47;;;18.71;50.53
76637;BME280;65532;52.124;5.480;2023-05-20T08:08:07;102323.31;;;18.88;49.56
76637;BME280;65532;52.124;5.480;2023-05-20T08:10:46;102330.63;;;18.99;49.81
76637;BME280;65532;52.124;5.480;2023-05-20T08:13:13;102319.19;;;19.24;49.18
76637;BME280;65532;52.124;5.480;2023-05-20T08:15:39;102322.59;;;19.31;49.53
76637;BME280;65532;52.124;5.480;2023-05-20T08:18:06;102322.66;;;19.75;47.35
76637;BME280;65532;52.124;5.480;2023-05-20T08:20:33;102328.03;;;19.65;48.71
76637;BME280;65532;52.124;5.480;2023-05-20T08:22:59;102333.09;;;19.73;46.16
76637;BME280;65532;52.124;5.480;2023-05-20T08:25:26;102322.28;;;19.88;45.53
76637;BME280;65532;52.124;5.480;2023-05-20T08:27:53;102325.84;;;19.67;45.97
76637;BME280;65532;52.124;5.480;2023-05-20T08:30:19;102317.38;;;19.95;45.16
76637;BME280;65532;52.124;5.480;2023-05-20T08:32:46;102320.50;;;20.31;44.26
76637;BME280;65532;52.124;5.480;2023-05-20T08:35:14;102332.03;;;20.28;43.18
76637;BME280;65532;52.124;5.480;2023-05-20T08:37:41;102307.06;;;20.34;43.32
76637;BME280;65532;52.124;5.480;2023-05-20T08:40:08;102318.69;;;20.15;43.24
76637;BME280;65532;52.124;5.480;2023-05-20T08:42:35;102317.03;;;20.14;44.72
76637;BME280;65532;52.124;5.480;2023-05-20T08:45:02;102310.22;;;20.43;43.23
76637;BME280;65532;52.124;5.480;2023-05-20T08:47:30;102306.16;;;20.24;43.27
76637;BME280;65532;52.124;5.480;2023-05-20T08:49:57;102300.13;;;20.27;42.96
76637;BME280;65532;52.124;5.480;2023-05-20T08:52:24;102299.03;;;20.28;42.15
76637;BME280;65532;52.124;5.480;2023-05-20T08:54:52;102294.78;;;20.42;43.14
76637;BME280;65532;52.124;5.480;2023-05-20T08:57:19;102289.94;;;20.86;41.66
76637;BME280;65532;52.124;5.480;2023-05-20T08:59:46;102291.19;;;20.74;42.53
76637;BME280;65532;52.124;5.480;2023-05-20T09:02:13;102289.66;;;20.88;42.34
76637;BME280;65532;52.124;5.480;2023-05-20T09:04:40;102294.56;;;21.23;42.59
76637;BME280;65532;52.124;5.480;2023-05-20T09:07:07;102289.63;;;20.83;41.34
76637;BME280;65532;52.124;5.480;2023-05-20T09:09:34;102300.50;;;20.36;40.79
76637;BME280;65532;52.124;5.480;2023-05-20T09:12:01;102287.91;;;20.18;43.13
76637;BME280;65532;52.124;5.480;2023-05-20T09:14:29;102289.44;;;20.62;42.01
76637;BME280;65532;52.124;5.480;2023-05-20T09:16:56;102282.81;;;20.31;43.35
76637;BME280;65532;52.124;5.480;2023-05-20T09:19:22;102286.88;;;20.51;43.14
76637;BME280;65532;52.124;5.480;2023-05-20T09:21:52;102289.97;;;20.59;42.01
76637;BME280;65532;52.124;5.480;2023-05-20T09:24:22;102283.34;;;20.55;40.40
76637;BME280;65532;52.124;5.480;2023-05-20T09:26:49;102282.84;;;20.63;41.31
76637;BME280;65532;52.124;5.480;2023-05-20T09:29:15;102279.19;;;20.85;42.43
76637;BME280;65532;52.124;5.480;2023-05-20T09:31:42;102278.03;;;20.81;41.07
76637;BME280;65532;52.124;5.480;2023-05-20T09:34:08;102270.78;;;21.12;42.48
76637;BME280;65532;52.124;5.480;2023-05-20T09:36:38;102272.28;;;21.30;40.70
76637;BME280;65532;52.124;5.480;2023-05-20T09:39:14;102261.28;;;21.30;42.04
76637;BME280;65532;52.124;5.480;2023-05-20T09:41:59;102263.88;;;21.04;40.27
76637;BME280;65532;52.124;5.480;2023-05-20T09:44:29;102272.88;;;20.89;43.03
76637;BME280;65532;52.124;5.480;2023-05-20T09:46:57;102265.56;;;21.10;41.40
76637;BME280;65532;52.124;5.480;2023-05-20T09:49:25;102263.34;;;21.07;41.41
76637;BME280;65532;52.124;5.480;2023-05-20T09:51:52;102269.03;;;20.90;41.48
76637;BME280;65532;52.124;5.480;2023-05-20T09:54:19;102262.84;;;21.15;41.37
76637;BME280;65532;52.124;5.480;2023-05-20T09:56:46;102259.94;;;20.95;39.95
76637;BME280;65532;52.124;5.480;2023-05-20T09:59:14;102266.91;;;21.08;40.59
76637;BME280;65532;52.124;5.480;2023-05-20T10:01:43;102249.06;;;21.15;40.42
76637;BME280;65532;52.124;5.480;2023-05-20T10:04:12;102254.94;;;21.29;41.11
76637;BME280;65532;52.124;5.480;2023-05-20T10:07:05;102244.56;;;21.46;41.59
76637;BME280;65532;52.124;5.480;2023-05-20T10:09:53;102244.34;;;21.73;41.10
76637;BME280;65532;52.124;5.480;2023-05-20T10:15:25;102246.00;;;21.69;40.33
76637;BME280;65532;52.124;5.480;2023-05-20T10:18:29;102245.75;;;21.91;39.70
76637;BME280;65532;52.124;5.480;2023-05-20T10:20:59;102242.72;;;21.93;39.59
76637;BME280;65532;52.124;5.480;2023-05-20T10:23:29;102240.53;;;21.85;38.54
76637;BME280;65532;52.124;5.480;2023-05-20T10:25:57;102226.75;;;22.00;38.87
76637;BME280;65532;52.124;5.480;2023-05-20T10:28:32;102230.69;;;22.45;38.40
76637;BME280;65532;52.124;5.480;2023-05-20T10:30:59;102223.50;;;22.18;38.60
76637;BME280;65532;52.124;5.480;2023-05-20T10:33:26;102226.78;;;22.40;38.07
76637;BME280;65532;52.124;5.480;2023-05-20T10:35:57;102219.09;;;22.27;39.00
76637;BME280;65532;52.124;5.480;2023-05-20T10:38:24;102209.56;;;21.57;39.35
76637;BME280;65532;52.124;5.480;2023-05-20T10:40:51;102215.47;;;21.23;39.41
76637;BME280;65532;52.124;5.480;2023-05-20T10:43:26;102207.44;;;21.90;39.05
76637;BME280;65532;52.124;5.480;2023-05-20T10:45:55;102199.75;;;22.32;38.82
76637;BME280;65532;52.124;5.480;2023-05-20T10:48:28;102203.06;;;22.09;38.70
76637;BME280;65532;52.124;5.480;2023-05-20T10:50:56;102204.72;;;22.15;39.57
76637;BME280;65532;52.124;5.480;2023-05-20T10:53:25;102218.25;;;22.47;37.85
76637;BME280;65532;52.124;5.480;2023-05-20T10:56:00;102217.69;;;22.45;38.33
76637;BME280;65532;52.124;5.480;2023-05-20T10:58:26;102214.00;;;21.73;39.32
76637;BME280;65532;52.124;5.480;2023-05-20T11:00:54;102194.72;;;21.73;39.29
76637;BME280;65532;52.124;5.480;2023-05-20T11:03:21;102187.56;;;21.88;38.98
76637;BME280;65532;52.124;5.480;2023-05-20T11:05:49;102196.09;;;21.71;39.51
76637;BME280;65532;52.124;5.480;2023-05-20T11:08:16;102190.06;;;21.99;38.79
76637;BME280;65532;52.124;5.480;2023-05-20T11:10:57;102194.16;;;21.66;38.75
76637;BME280;65532;52.124;5.480;2023-05-20T11:13:25;102186.25;;;21.17;39.43
76637;BME280;65532;52.124;5.480;2023-05-20T11:15:52;102188.31;;;20.85;40.08
76637;BME280;65532;52.124;5.480;2023-05-20T11:18:18;102195.81;;;20.52;41.64
76637;BME280;65532;52.124;5.480;2023-05-20T11:20:45;102184.03;;;20.62;41.96
76637;BME280;65532;52.124;5.480;2023-05-20T11:23:13;102173.09;;;21.25;40.85
76637;BME280;65532;52.124;5.480;2023-05-20T11:25:40;102181.19;;;21.62;40.53
76637;BME280;65532;52.124;5.480;2023-05-20T11:28:13;102187.63;;;21.15;40.68
76637;BME280;65532;52.124;5.480;2023-05-20T11:30:41;102187.03;;;21.08;42.18
76637;BME280;65532;52.124;5.480;2023-05-20T11:33:11;102182.63;;;21.02;41.35
76637;BME280;65532;52.124;5.480;2023-05-20T11:35:47;102179.00;;;20.96;41.76
76637;BME280;65532;52.124;5.480;2023-05-20T11:38:14;102175.66;;;20.89;42.11
76637;BME280;65532;52.124;5.480;2023-05-20T11:40:51;102186.47;;;21.01;42.12
76637;BME280;65532;52.124;5.480;2023-05-20T11:43:20;102150.41;;;21.07;41.61
76637;BME280;65532;52.124;5.480;2023-05-20T11:45:52;102166.47;;;21.26;43.45
76637;BME280;65532;52.124;5.480;2023-05-20T11:48:19;102150.56;;;21.48;41.80
76637;BME280;65532;52.124;5.480;2023-05-20T11:50:46;102155.56;;;21.66;43.22
76637;BME280;65532;52.124;5.480;2023-05-20T11:53:17;102153.13;;;22.16;41.86
76637;BME280;65532;52.124;5.480;2023-05-20T11:55:48;102148.97;;;22.23;41.85
76637;BME280;65532;52.124;5.480;2023-05-20T11:58:20;102158.88;;;21.89;39.88
76637;BME280;65532;52.124;5.480;2023-05-20T12:00:47;102160.81;;;21.88;41.94
76637;BME280;65532;52.124;5.480;2023-05-20T12:03:27;102144.84;;;22.31;40.09
76637;BME280;65532;52.124;5.480;2023-05-20T12:05:54;102144.53;;;22.48;39.62
76637;BME280;65532;52.124;5.480;2023-05-20T12:08:20;102131.84;;;22.36;39.13
76637;BME280;65532;52.124;5.480;2023-05-20T12:10:48;102126.63;;;22.25;40.06
76637;BME280;65532;52.124;5.480;2023-05-20T12:13:14;102136.28;;;22.42;39.96
76637;BME280;65532;52.124;5.480;2023-05-20T12:15:41;102124.09;;;22.54;39.00
76637;BME280;65532;52.124;5.480;2023-05-20T12:18:07;102125.03;;;23.04;38.71
76637;BME280;65532;52.124;5.480;2023-05-20T12:20:35;102129.81;;;22.83;39.06
76637;BME280;65532;52.124;5.480;2023-05-20T12:23:03;102137.94;;;22.03;40.90
76637;BME280;65532;52.124;5.480;2023-05-20T12:25:30;102128.28;;;21.65;41.58
76637;BME280;65532;52.124;5.480;2023-05-20T12:27:58;102129.09;;;21.70;42.16
76637;BME280;65532;52.124;5.480;2023-05-20T12:30:24;102119.16;;;21.54;40.33
76637;BME280;65532;52.124;5.480;2023-05-20T12:32:51;102128.75;;;21.31;42.42
76637;BME280;65532;52.124;5.480;2023-05-20T12:35:40;102126.25;;;21.25;40.98
76637;BME280;65532;52.124;5.480;2023-05-20T12:38:07;102126.22;;;21.19;40.77
76637;BME280;65532;52.124;5.480;2023-05-20T12:40:34;102122.88;;;21.12;41.14
76637;BME280;65532;52.124;5.480;2023-05-20T12:43:03;102130.00;;;21.03;40.86
76637;BME280;65532;52.124;5.480;2023-05-20T12:45:30;102127.13;;;21.35;41.66
76637;BME280;65532;52.124;5.480;2023-05-20T12:47:57;102137.34;;;21.50;41.21
76637;BME280;65532;52.124;5.480;2023-05-20T12:50:24;102129.59;;;21.37;42.23
76637;BME280;65532;52.124;5.480;2023-05-20T12:52:51;102118.81;;;21.30;42.65
76637;BME280;65532;52.124;5.480;2023-05-20T12:55:18;102121.84;;;21.29;42.68
76637;BME280;65532;52.124;5.480;2023-05-20T12:57:45;102118.81;;;21.30;42.76
76637;BME280;65532;52.124;5.480;2023-05-20T13:00:13;102116.88;;;21.26;42.44
76637;BME280;65532;52.124;5.480;2023-05-20T13:02:41;102115.69;;;21.11;42.57